createdAt,value
2018-08-13T00:02:20.757Z,54.51
2018-08-13T00:04:49.760Z,54.73
2018-08-13T00:07:18.798Z,54.69
2018-08-13T00:09:47.790Z,54.82
2018-08-13T00:12:17.091Z,54.64
2018-08-13T00:14:46.111Z,54.64
2018-08-13T00:17:15.067Z,54.94
2018-08-13T00:19:44.031Z,55.02
2018-08-13T00:22:12.992Z,54.86
2018-08-13T00:24:41.943Z,54.67
2018-08-13T00:27:10.860Z,55.07
2018-08-13T00:29:39.864Z,55.01
2018-08-13T00:32:08.814Z,54.83
2018-08-13T00:34:37.819Z,54.85
2018-08-13T00:37:06.871Z,54.85
2018-08-13T00:39:35.956Z,54.87
2018-08-13T00:42:04.985Z,54.89
2018-08-13T00:44:34.315Z,55.04
2018-08-13T00:47:03.318Z,54.76
2018-08-13T00:49:32.388Z,54.96
2018-08-13T00:52:01.542Z,54.83
2018-08-13T00:54:31.990Z,54.80
2018-08-13T00:57:02.251Z,55.08
2018-08-13T00:59:31.500Z,55.23
2018-08-13T01:02:01.654Z,55.04
2018-08-13T01:04:31.926Z,54.80
2018-08-13T01:07:01.411Z,55.39
2018-08-13T01:09:32.177Z,54.96
2018-08-13T01:12:02.127Z,55.01
2018-08-13T01:14:31.546Z,54.99
2018-08-13T01:17:01.683Z,55.12
2018-08-13T01:19:31.452Z,54.98
2018-08-13T01:22:00.687Z,54.86
2018-08-13T01:24:30.712Z,55.07
2018-08-13T01:27:00.099Z,55.19
2018-08-13T01:29:29.378Z,55.22
2018-08-13T01:31:59.740Z,55.01
2018-08-13T01:34:29.915Z,55.18
2018-08-13T01:36:59.081Z,55.15
2018-08-13T01:39:28.581Z,55.23
2018-08-13T01:41:57.862Z,55.07
2018-08-13T01:44:26.823Z,54.94
2018-08-13T01:46:55.763Z,54.95
2018-08-13T01:49:24.694Z,55.23
2018-08-13T01:51:53.638Z,55.13
2018-08-13T01:54:22.582Z,54.95
2018-08-13T01:56:51.578Z,55.26
2018-08-13T01:59:20.532Z,55.46
2018-08-13T02:01:49.657Z,55.21
2018-08-13T02:04:18.604Z,55.46
2018-08-13T02:06:48.020Z,55.44
2018-08-13T02:09:16.977Z,55.13
2018-08-13T02:11:45.938Z,55.26
2018-08-13T02:14:15.358Z,55.31
2018-08-13T02:16:44.336Z,55.23
2018-08-13T02:19:13.321Z,55.36
2018-08-13T02:21:42.542Z,55.23
2018-08-13T02:24:11.491Z,55.38
2018-08-13T02:26:40.470Z,55.16
2018-08-13T02:29:10.123Z,55.44
2018-08-13T02:31:39.387Z,55.48
2018-08-13T02:34:08.779Z,55.50
2018-08-13T02:36:38.619Z,55.19
2018-08-13T02:39:09.969Z,55.64
2018-08-13T02:41:40.401Z,55.57
2018-08-13T02:44:09.371Z,55.44
2018-08-13T02:46:39.698Z,55.52
2018-08-13T02:49:09.568Z,55.51
2018-08-13T02:51:38.941Z,55.27
2018-08-13T02:54:08.745Z,55.68
2018-08-13T02:56:38.159Z,55.45
2018-08-13T02:59:08.723Z,55.27
2018-08-13T03:01:39.466Z,55.25
2018-08-13T03:04:10.558Z,55.40
2018-08-13T03:06:40.072Z,55.41
2018-08-13T03:09:10.896Z,55.70
2018-08-13T03:11:42.160Z,55.55
2018-08-13T03:14:11.564Z,55.51
2018-08-13T03:16:41.510Z,55.63
2018-08-13T03:19:12.212Z,55.49
2018-08-13T03:21:42.124Z,55.30
2018-08-13T03:24:11.687Z,55.50
2018-08-13T03:26:42.768Z,55.41
2018-08-13T03:29:12.686Z,55.59
2018-08-13T03:31:42.076Z,55.66
2018-08-13T03:34:11.398Z,55.34
2018-08-13T03:36:40.572Z,55.49
2018-08-13T03:39:12.143Z,55.75
2018-08-13T03:41:43.601Z,55.64
2018-08-13T03:44:13.454Z,55.87
2018-08-13T03:46:43.436Z,55.73
2018-08-13T03:49:13.026Z,55.75
2018-08-13T03:51:43.086Z,55.72
2018-08-13T03:54:13.224Z,55.78
2018-08-13T03:56:42.362Z,55.60
2018-08-13T03:59:11.675Z,55.63
2018-08-13T04:01:42.411Z,55.68
2018-08-13T04:04:11.707Z,55.78
2018-08-13T04:06:41.253Z,55.53
2018-08-13T04:09:10.624Z,55.73
2018-08-13T04:11:40.519Z,55.78
2018-08-13T04:14:10.570Z,55.78
2018-08-13T04:16:40.385Z,55.84
2018-08-13T04:19:10.722Z,55.53
2018-08-13T04:21:41.067Z,55.69
2018-08-13T04:24:11.351Z,55.70
2018-08-13T04:26:41.920Z,55.70
2018-08-13T04:29:11.817Z,55.83
2018-08-13T04:31:41.286Z,55.75
2018-08-13T04:34:11.011Z,56.05
2018-08-13T04:36:40.504Z,55.62
2018-08-13T04:39:12.685Z,55.73
2018-08-13T04:41:43.750Z,55.77
2018-08-13T04:44:14.119Z,56.03
2018-08-13T04:46:43.362Z,56.09
2018-08-13T04:49:12.579Z,55.83
2018-08-13T04:51:42.471Z,55.99
2018-08-13T04:54:12.443Z,56.21
2018-08-13T04:56:41.900Z,55.87
2018-08-13T04:59:11.196Z,55.83
2018-08-13T05:01:40.598Z,55.91
2018-08-13T05:04:09.873Z,55.99
2018-08-13T05:06:39.145Z,55.96
2018-08-13T05:09:09.442Z,56.07
2018-08-13T05:11:38.698Z,56.33
2018-08-13T05:14:07.788Z,56.27
2018-08-13T05:16:36.718Z,56.14
2018-08-13T05:19:05.970Z,56.46
2018-08-13T05:21:34.936Z,56.50
2018-08-13T05:24:03.956Z,56.33
2018-08-13T05:26:32.895Z,56.12
2018-08-13T05:29:02.247Z,56.40
2018-08-13T05:31:31.254Z,56.37
2018-08-13T05:34:00.386Z,56.53
2018-08-13T05:36:29.404Z,56.60
2018-08-13T05:38:58.874Z,56.62
2018-08-13T05:41:27.879Z,56.49
2018-08-13T05:43:56.813Z,56.20
2018-08-13T05:46:25.775Z,56.37
2018-08-13T05:48:55.071Z,56.15
2018-08-13T05:51:24.026Z,56.13
2018-08-13T05:53:53.214Z,56.26
2018-08-13T05:56:22.383Z,56.27
2018-08-13T05:58:51.670Z,56.37
2018-08-13T06:01:20.630Z,56.45
2018-08-13T06:03:49.586Z,56.06
2018-08-13T06:06:19.308Z,56.26
2018-08-13T06:08:48.547Z,56.07
2018-08-13T06:11:17.716Z,56.36
2018-08-13T06:13:47.015Z,56.19
2018-08-13T06:16:16.134Z,56.46
2018-08-13T06:18:45.174Z,56.18
2018-08-13T06:21:14.503Z,56.36
2018-08-13T06:23:43.570Z,56.52
2018-08-13T06:26:12.563Z,56.66
2018-08-13T06:28:41.509Z,56.47
2018-08-13T06:31:10.610Z,56.66
2018-08-13T06:33:39.753Z,56.40
2018-08-13T06:36:09.063Z,56.95
2018-08-13T06:38:38.066Z,56.69
2018-08-13T06:41:07.079Z,57.08
2018-08-13T06:43:36.483Z,56.69
2018-08-13T06:46:05.427Z,56.88
2018-08-13T06:48:34.374Z,56.78
2018-08-13T06:51:03.469Z,56.82
2018-08-13T06:53:32.767Z,57.11
2018-08-13T06:56:01.754Z,57.05
2018-08-13T06:58:30.762Z,57.16
2018-08-13T07:00:59.698Z,57.12
2018-08-13T07:03:28.691Z,57.50
2018-08-13T07:05:57.663Z,57.25
2018-08-13T07:08:26.621Z,57.33
2018-08-13T07:10:55.559Z,57.90
2018-08-13T07:13:24.558Z,57.55
2018-08-13T07:15:53.515Z,58.05
2018-08-13T07:18:22.910Z,58.06
2018-08-13T07:20:52.155Z,58.41
2018-08-13T07:23:23.083Z,58.63
2018-08-13T07:25:52.569Z,58.54
2018-08-13T07:28:21.497Z,58.59
2018-08-13T07:30:50.425Z,59.00
2018-08-13T07:33:19.437Z,58.76
2018-08-13T07:35:50.152Z,58.99
2018-08-13T07:38:19.103Z,58.99
2018-08-13T07:40:48.116Z,59.45
2018-08-13T07:43:17.081Z,59.49
2018-08-13T07:45:46.365Z,59.50
2018-08-13T07:48:15.286Z,59.71
2018-08-13T07:50:44.266Z,59.83
2018-08-13T07:53:13.201Z,59.62
2018-08-13T07:55:42.139Z,59.89
2018-08-13T07:58:11.090Z,59.80
2018-08-13T08:00:40.072Z,60.03
2018-08-13T08:03:09.055Z,59.79
2018-08-13T08:05:38.023Z,59.97
2018-08-13T08:08:07.412Z,60.03
2018-08-13T08:10:36.455Z,60.12
2018-08-13T08:13:05.416Z,59.66
2018-08-13T08:15:34.376Z,59.66
2018-08-13T08:18:03.799Z,59.87
2018-08-13T08:20:32.758Z,59.83
2018-08-13T08:23:01.755Z,59.31
2018-08-13T08:25:30.706Z,59.50
2018-08-13T08:27:59.698Z,59.40
2018-08-13T08:30:28.966Z,59.56
2018-08-13T08:32:57.948Z,59.35
2018-08-13T08:35:26.883Z,59.19
2018-08-13T08:37:55.846Z,59.29
2018-08-13T08:40:24.834Z,59.10
2018-08-13T08:42:53.814Z,59.16
2018-08-13T08:45:27.445Z,59.01
2018-08-13T08:47:57.114Z,58.83
2018-08-13T08:50:27.072Z,59.15
2018-08-13T08:52:56.077Z,58.86
2018-08-13T08:55:25.026Z,58.88
2018-08-13T08:57:53.974Z,58.93
2018-08-13T09:00:24.263Z,58.80
2018-08-13T09:02:53.538Z,58.92
2018-08-13T09:05:22.594Z,58.62
2018-08-13T09:07:51.566Z,58.87
2018-08-13T09:10:20.510Z,58.84
2018-08-13T09:12:49.452Z,58.52
2018-08-13T09:15:18.808Z,58.37
2018-08-13T09:17:59.574Z,58.40
2018-08-13T09:20:39.579Z,58.45
2018-08-13T09:23:19.634Z,58.38
2018-08-13T09:26:00.559Z,58.48
2018-08-13T09:28:40.970Z,58.29
2018-08-13T09:32:24.771Z,58.16
2018-08-13T09:35:32.164Z,58.22
2018-08-13T09:38:01.180Z,58.20
2018-08-13T09:40:31.366Z,57.89
2018-08-13T09:43:00.470Z,58.15
2018-08-13T09:45:29.434Z,57.85
2018-08-13T09:47:58.379Z,57.74
2018-08-13T09:50:27.717Z,57.82
2018-08-13T09:52:56.816Z,57.65
2018-08-13T09:55:25.851Z,57.67
2018-08-13T09:57:54.820Z,57.79
2018-08-13T10:00:28.816Z,58.15
2018-08-13T10:02:57.760Z,57.78
2018-08-13T10:05:26.697Z,57.70
2018-08-13T10:07:55.923Z,57.82
2018-08-13T10:10:24.895Z,57.98
2018-08-13T10:12:53.864Z,57.97
2018-08-13T10:15:23.254Z,57.77
2018-08-13T10:17:52.212Z,57.80
2018-08-13T10:20:22.255Z,57.98
2018-08-13T10:22:51.188Z,57.83
2018-08-13T10:25:20.128Z,57.74
2018-08-13T10:27:49.423Z,57.75
2018-08-13T10:30:18.688Z,57.84
2018-08-13T10:32:48.375Z,58.06
2018-08-13T10:35:18.315Z,57.85
2018-08-13T10:37:47.673Z,57.60
2018-08-13T10:40:19.636Z,58.06
2018-08-13T10:42:49.663Z,57.78
2018-08-13T10:45:19.063Z,58.02
2018-08-13T10:47:49.844Z,57.88
2018-08-13T10:50:19.078Z,57.86
2018-08-13T10:52:49.368Z,58.06
2018-08-13T10:55:18.826Z,57.77
2018-08-13T10:57:49.485Z,57.82
2018-08-13T11:00:19.434Z,57.79
2018-08-13T11:02:48.818Z,57.77
2018-08-13T11:05:18.277Z,57.58
2018-08-13T11:07:47.243Z,58.03
2018-08-13T11:10:16.744Z,57.74
2018-08-13T11:12:45.707Z,57.93
2018-08-13T11:15:17.570Z,58.01
2018-08-13T11:17:46.942Z,58.18
2018-08-13T11:20:17.178Z,58.15
2018-08-13T11:22:46.598Z,57.77
2018-08-13T11:25:16.532Z,58.00
2018-08-13T11:27:46.025Z,58.07
2018-08-13T11:32:53.762Z,58.13
2018-08-13T11:35:23.000Z,58.08
2018-08-13T11:37:53.010Z,58.11
2018-08-13T11:40:22.109Z,58.07
2018-08-13T11:42:52.714Z,57.83
2018-08-13T11:45:22.232Z,58.10
2018-08-13T11:47:52.279Z,57.88
2018-08-13T11:50:24.396Z,58.50
2018-08-13T11:52:54.880Z,58.54
2018-08-13T11:55:24.207Z,58.69
2018-08-13T11:57:53.678Z,58.42
2018-08-13T12:00:22.987Z,58.85
2018-08-13T12:02:52.469Z,58.81
2018-08-13T12:05:22.046Z,58.28
2018-08-13T12:07:51.430Z,58.63
2018-08-13T12:10:20.655Z,58.27
2018-08-13T12:12:50.474Z,58.26
2018-08-13T12:15:19.856Z,58.24
2018-08-13T12:17:49.052Z,58.40
2018-08-13T12:20:20.298Z,58.03
2018-08-13T12:22:49.668Z,58.29
2018-08-13T12:25:21.519Z,58.37
2018-08-13T12:27:50.748Z,58.41
2018-08-13T12:30:19.959Z,58.29
2018-08-13T12:32:50.162Z,58.46
2018-08-13T12:35:19.707Z,58.15
2018-08-13T12:37:48.753Z,58.57
2018-08-13T12:40:18.744Z,58.54
2018-08-13T12:42:47.984Z,58.63
2018-08-13T12:45:18.285Z,58.65
2018-08-13T12:47:47.634Z,58.99
2018-08-13T12:50:18.308Z,58.91
2018-08-13T12:52:48.960Z,59.16
2018-08-13T12:55:18.898Z,59.70
2018-08-13T12:57:49.038Z,59.70
2018-08-13T13:00:19.067Z,60.18
2018-08-13T13:02:48.721Z,60.58
2018-08-13T13:05:19.251Z,60.57
2018-08-13T13:07:48.356Z,60.54
2018-08-13T13:10:19.467Z,60.98
2018-08-13T13:12:48.894Z,61.24
2018-08-13T13:15:19.765Z,61.09
2018-08-13T13:17:49.224Z,61.05
2018-08-13T13:20:22.154Z,61.18
2018-08-13T13:22:51.706Z,61.02
2018-08-13T13:25:22.159Z,60.14
2018-08-13T13:27:52.617Z,60.18
2018-08-13T13:30:22.331Z,59.99
2018-08-13T13:32:51.407Z,59.46
2018-08-13T13:35:20.662Z,59.22
2018-08-13T13:37:50.556Z,59.15
2018-08-13T13:40:21.285Z,59.17
2018-08-13T13:42:50.495Z,58.66
2018-08-13T13:45:21.098Z,58.79
2018-08-13T13:47:50.343Z,58.48
2018-08-13T13:50:20.155Z,58.59
2018-08-13T13:52:49.581Z,58.44
2018-08-13T13:55:18.715Z,59.04
2018-08-13T13:57:48.054Z,59.27
2018-08-13T14:00:22.335Z,58.92
2018-08-13T14:02:55.871Z,59.42
2018-08-13T14:05:25.939Z,59.20
2018-08-13T14:07:55.588Z,58.99
2018-08-13T14:11:39.359Z,58.99
2018-08-13T14:14:09.127Z,59.89
2018-08-13T14:16:38.443Z,59.92
2018-08-13T14:19:08.174Z,60.14
2018-08-13T14:21:38.307Z,60.52
2018-08-13T14:24:07.368Z,61.13
2018-08-13T14:26:37.052Z,61.32
2018-08-13T14:29:06.293Z,61.45
2018-08-13T14:31:35.594Z,62.19
2018-08-13T14:34:04.984Z,61.82
2018-08-13T14:36:34.314Z,61.96
2018-08-13T14:39:03.777Z,62.02
2018-08-13T14:41:33.212Z,61.74
2018-08-13T14:44:02.515Z,62.40
2018-08-13T14:46:31.715Z,62.50
2018-08-13T14:49:01.003Z,61.74
2018-08-13T14:51:31.053Z,61.87
2018-08-13T14:54:01.475Z,61.74
2018-08-13T14:56:31.946Z,62.16
2018-08-13T14:59:03.363Z,63.02
2018-08-13T15:01:32.971Z,63.33
2018-08-13T15:04:02.571Z,63.97
2018-08-13T15:06:31.677Z,63.77
2018-08-13T15:09:01.266Z,63.65
2018-08-13T15:11:39.891Z,63.83
2018-08-13T15:14:11.094Z,64.23
2018-08-13T15:16:40.331Z,64.88
2018-08-13T15:19:10.564Z,65.10
2018-08-13T15:21:39.958Z,64.35
2018-08-13T15:24:09.164Z,64.69
2018-08-13T15:26:38.338Z,64.99
2018-08-13T15:29:07.488Z,64.29
2018-08-13T15:31:36.822Z,64.19
2018-08-13T15:34:06.196Z,63.71
2018-08-13T15:36:36.348Z,64.04
2018-08-13T15:39:07.920Z,63.61
2018-08-13T15:41:37.107Z,63.05
2018-08-13T15:44:17.737Z,63.04
2018-08-13T15:46:53.726Z,63.82
2018-08-13T15:49:23.043Z,63.14
2018-08-13T15:51:52.499Z,63.35
2018-08-13T15:54:36.077Z,63.82
2018-08-13T15:57:29.955Z,64.38
2018-08-13T16:00:00.349Z,64.32
2018-08-13T16:02:31.399Z,64.38
2018-08-13T16:05:00.474Z,64.84
2018-08-13T16:07:29.669Z,64.69
2018-08-13T16:09:59.521Z,65.01
2018-08-13T16:12:28.511Z,64.83
2018-08-13T16:14:58.215Z,65.01
2018-08-13T16:17:27.933Z,64.90
2018-08-13T16:19:57.424Z,65.12
2018-08-13T16:22:26.712Z,64.70
2018-08-13T16:24:56.950Z,64.77
2018-08-13T16:27:26.589Z,64.21
2018-08-13T16:29:56.818Z,63.63
2018-08-13T16:32:26.149Z,63.90
2018-08-13T16:34:55.920Z,63.38
2018-08-13T16:37:27.651Z,63.71
2018-08-13T16:40:01.436Z,63.69
2018-08-13T16:42:31.016Z,64.15
2018-08-13T16:45:00.514Z,63.94
2018-08-13T16:47:30.761Z,64.31
2018-08-13T16:50:00.761Z,64.29
2018-08-13T16:52:30.016Z,64.22
2018-08-13T16:54:59.892Z,64.27
2018-08-13T16:57:30.467Z,64.14
2018-08-13T16:59:59.855Z,64.51
2018-08-13T17:02:47.975Z,64.70
2018-08-13T17:05:19.951Z,64.62
2018-08-13T17:07:49.101Z,64.35
2018-08-13T17:10:22.764Z,64.63
2018-08-13T17:12:56.576Z,64.62
2018-08-13T17:15:27.066Z,64.46
2018-08-13T17:17:57.808Z,64.50
2018-08-13T17:20:30.613Z,64.35
2018-08-13T17:23:00.580Z,64.68
2018-08-13T17:25:29.986Z,64.46
2018-08-13T17:27:59.701Z,64.65
2018-08-13T17:30:29.211Z,64.41
2018-08-13T17:33:00.776Z,64.55
2018-08-13T17:35:31.850Z,64.26
2018-08-13T17:38:01.571Z,64.11
2018-08-13T17:40:31.275Z,64.42
2018-08-13T17:43:04.270Z,64.20
2018-08-13T17:45:33.866Z,64.12
2018-08-13T17:48:04.868Z,64.24
2018-08-13T17:50:36.731Z,63.76
2018-08-13T17:53:06.652Z,64.04
2018-08-13T17:55:36.056Z,64.07
2018-08-13T17:58:05.825Z,63.92
2018-08-13T18:00:35.243Z,63.92
2018-08-13T18:03:04.784Z,64.07
2018-08-13T18:05:34.689Z,63.86
2018-08-13T18:08:04.408Z,63.95
2018-08-13T18:10:34.834Z,64.05
2018-08-13T18:13:06.233Z,64.12
2018-08-13T18:15:35.612Z,64.08
2018-08-13T18:18:05.556Z,64.02
2018-08-13T18:20:34.951Z,64.08
2018-08-13T18:23:04.910Z,64.25
2018-08-13T18:25:34.107Z,64.33
2018-08-13T18:28:03.460Z,64.04
2018-08-13T18:30:32.672Z,64.32
2018-08-13T18:33:02.258Z,64.36
2018-08-13T18:35:33.187Z,64.64
2018-08-13T18:38:03.152Z,64.37
2018-08-13T18:40:34.266Z,64.51
2018-08-13T18:43:03.725Z,64.50
2018-08-13T18:45:33.491Z,64.44
2018-08-13T18:48:02.984Z,64.67
2018-08-13T18:50:32.790Z,64.65
2018-08-13T18:53:02.202Z,64.79
2018-08-13T18:55:31.948Z,64.56
2018-08-13T18:58:01.268Z,64.74
2018-08-13T19:00:31.475Z,64.78
2018-08-13T19:03:01.938Z,64.82
2018-08-13T19:05:31.259Z,64.81
2018-08-13T19:08:00.674Z,64.75
2018-08-13T19:10:30.267Z,64.73
2018-08-13T19:13:00.778Z,64.62
2018-08-13T19:15:30.654Z,64.76
2018-08-13T19:18:00.355Z,64.87
2018-08-13T19:20:30.032Z,64.89
2018-08-13T19:22:59.692Z,64.80
2018-08-13T19:25:29.771Z,64.88
2018-08-13T19:28:00.516Z,65.07
2018-08-13T19:30:31.509Z,64.94
2018-08-13T19:33:01.363Z,64.85
2018-08-13T19:35:30.743Z,64.72
2018-08-13T19:37:59.867Z,65.18
2018-08-13T19:40:29.297Z,64.77
2018-08-13T19:42:58.833Z,65.14
2018-08-13T19:45:28.176Z,65.21
2018-08-13T19:47:57.574Z,65.34
2018-08-13T19:50:28.162Z,65.20
2018-08-13T19:52:59.247Z,65.05
2018-08-13T19:55:29.260Z,65.16
2018-08-13T19:57:58.521Z,64.88
2018-08-13T20:00:29.456Z,64.96
2018-08-13T20:02:59.260Z,65.25
2018-08-13T20:05:29.243Z,65.28
2018-08-13T20:07:58.591Z,65.38
2018-08-13T20:10:28.546Z,65.79
2018-08-13T20:12:57.802Z,65.83
2018-08-13T20:15:26.987Z,66.02
2018-08-13T20:17:56.391Z,65.79
2018-08-13T20:20:26.005Z,65.84
2018-08-13T20:22:55.190Z,65.83
2018-08-13T20:25:25.466Z,66.10
2018-08-13T20:27:58.739Z,65.95
2018-08-13T20:30:28.159Z,65.83
2018-08-13T20:32:57.936Z,65.72
2018-08-13T20:35:27.432Z,65.92
2018-08-13T20:37:56.948Z,65.93
2018-08-13T20:40:26.436Z,66.02
2018-08-13T20:42:55.987Z,65.61
2018-08-13T20:45:25.349Z,65.90
2018-08-13T20:47:54.736Z,65.56
2018-08-13T20:50:25.325Z,65.48
2018-08-13T20:52:55.488Z,65.84
2018-08-13T20:55:28.047Z,65.97
2018-08-13T20:57:57.499Z,65.98
2018-08-13T21:00:28.492Z,65.75
2018-08-13T21:02:59.030Z,65.48
2018-08-13T21:05:28.451Z,65.70
2018-08-13T21:07:58.040Z,65.80
2018-08-13T21:10:28.124Z,66.02
2018-08-13T21:12:57.443Z,65.94
2018-08-13T21:15:28.472Z,65.71
2018-08-13T21:17:57.912Z,65.51
2018-08-13T21:20:28.805Z,65.87
2018-08-13T21:22:58.863Z,65.91
2018-08-13T21:25:28.452Z,65.69
2018-08-13T21:27:57.672Z,65.74
2018-08-13T21:30:27.581Z,65.73
2018-08-13T21:32:56.857Z,65.63
2018-08-13T21:35:26.718Z,65.44
2018-08-13T21:37:56.611Z,65.39
2018-08-13T21:40:25.803Z,65.31
2018-08-13T21:42:56.068Z,65.48
2018-08-13T21:45:25.420Z,65.26
2018-08-13T21:47:56.469Z,64.89
2018-08-13T21:50:25.714Z,65.36
2018-08-13T21:52:55.072Z,64.86
2018-08-13T21:55:24.383Z,65.07
2018-08-13T21:57:55.353Z,64.90
2018-08-13T22:00:29.140Z,64.81
2018-08-13T22:02:59.794Z,65.24
2018-08-13T22:05:29.756Z,64.82
2018-08-13T22:07:59.091Z,64.71
2018-08-13T22:10:29.094Z,65.07
2018-08-13T22:12:58.466Z,64.82
2018-08-13T22:15:32.760Z,64.87
2018-08-13T22:18:06.402Z,64.56
2018-08-13T22:20:36.677Z,64.53
2018-08-13T22:23:06.786Z,64.37
2018-08-13T22:25:41.839Z,64.45
2018-08-13T22:28:11.820Z,64.43
2018-08-13T22:30:41.814Z,64.00
2018-08-13T22:33:12.035Z,64.10
2018-08-13T22:35:41.662Z,64.31
2018-08-13T22:38:11.303Z,64.15
2018-08-13T22:40:40.823Z,64.31
2018-08-13T22:43:10.264Z,64.08
2018-08-13T22:45:39.907Z,64.17
2018-08-13T22:48:10.292Z,64.18
2018-08-13T22:50:39.868Z,63.91
2018-08-13T22:53:09.360Z,63.99
2018-08-13T22:55:39.183Z,64.04
2018-08-13T22:58:09.357Z,63.94
2018-08-13T23:00:38.804Z,63.74
2018-08-13T23:03:08.732Z,64.07
2018-08-13T23:05:38.010Z,63.75
2018-08-13T23:08:07.841Z,63.68
2018-08-13T23:10:37.047Z,64.10
2018-08-13T23:13:12.215Z,63.73
2018-08-13T23:15:41.560Z,63.80
2018-08-13T23:18:11.112Z,63.71
2018-08-13T23:20:41.340Z,63.97
2018-08-13T23:23:10.706Z,63.75
2018-08-13T23:25:40.220Z,63.80
2018-08-13T23:28:11.905Z,63.83
2018-08-13T23:30:41.198Z,63.85
2018-08-13T23:33:10.753Z,63.60
2018-08-13T23:35:40.247Z,63.61
2018-08-13T23:38:09.563Z,63.43
2018-08-13T23:40:38.876Z,63.58
2018-08-13T23:43:08.809Z,63.79
2018-08-13T23:45:38.183Z,63.61
2018-08-13T23:48:07.599Z,63.58
2018-08-13T23:50:37.097Z,63.39
2018-08-13T23:53:06.489Z,63.40
2018-08-13T23:55:38.301Z,63.54
2018-08-13T23:58:10.103Z,63.66
